FDX448 KSAN-KPSP
Flight info
| Callsign | FDX448 |
|---|---|
| Flight time | N/A |
| Altitude | 15000 |
| Route | BRDR7 JLI V208 TRM |
| Aircraft | B77L/H-SDE1E2E3FGHIJ2J3J4J5M1RWXY/LB1D1 |
Departure
| Time | 2026-05-07 00:19 |
|---|---|
| Airport | San Diego International Airport (KSAN) |
Arrival
| Time | N/A |
|---|---|
| Airport | Palm Springs International Airport (KPSP) |
| Time | Latitude | Longitude | Altitude | Speed | Heading |
|---|---|---|---|---|---|
| 2026-05-07 00:05 | 32.73518 | -117.18369 | 25 ft | 0 kts | 55° |
| 2026-05-07 00:12 | 32.73503 | -117.18396 | 25 ft | 0 kts | 61° |
| 2026-05-07 00:13 | 32.73416 | -117.18371 | 24 ft | 545 kts | 145° |
| 2026-05-07 00:13 | 32.73513 | -117.18450 | 25 ft | 0 kts | 145° |
| 2026-05-07 00:14 | 32.73465 | -117.18414 | 25 ft | 12 kts | 152° |
| 2026-05-07 00:14 | 32.73385 | -117.18399 | 26 ft | 12 kts | 179° |
| 2026-05-07 00:15 | 32.73323 | -117.18337 | 25 ft | 13 kts | 116° |
| 2026-05-07 00:15 | 32.73292 | -117.18225 | 25 ft | 15 kts | 106° |
| 2026-05-07 00:15 | 32.73263 | -117.18106 | 25 ft | 15 kts | 106° |
| 2026-05-07 00:15 | 32.73234 | -117.17985 | 24 ft | 16 kts | 106° |
| 2026-05-07 00:16 | 32.73205 | -117.17864 | 24 ft | 12 kts | 105° |
| 2026-05-07 00:16 | 32.73182 | -117.17770 | 26 ft | 12 kts | 105° |
| 2026-05-07 00:16 | 32.73161 | -117.17677 | 26 ft | 12 kts | 105° |
| 2026-05-07 00:16 | 32.73128 | -117.17582 | 25 ft | 12 kts | 131° |
| 2026-05-07 00:17 | 32.73118 | -117.17570 | 25 ft | 0 kts | 139° |
| 2026-05-07 00:18 | 32.73101 | -117.17554 | 25 ft | 16 kts | 142° |
| 2026-05-07 00:18 | 32.73029 | -117.17602 | 25 ft | 15 kts | 269° |
| 2026-05-07 00:18 | 32.73123 | -117.18011 | 26 ft | 109 kts | 286° |
| 2026-05-07 00:18 | 32.73429 | -117.19277 | 376 ft | 188 kts | 287° |
| 2026-05-07 00:19 | 32.73793 | -117.20761 | 1102 ft | 184 kts | 288° |
| 2026-05-07 00:19 | 32.74164 | -117.22116 | 2396 ft | 170 kts | 290° |
| 2026-05-07 00:19 | 32.74572 | -117.23532 | 2864 ft | 196 kts | 290° |
| 2026-05-07 00:19 | 32.75052 | -117.25194 | 3140 ft | 230 kts | 289° |
| 2026-05-07 00:20 | 32.75598 | -117.27091 | 3653 ft | 249 kts | 289° |
| 2026-05-07 00:20 | 32.76171 | -117.29082 | 4453 ft | 260 kts | 289° |
| 2026-05-07 00:20 | 32.76752 | -117.31158 | 5232 ft | 268 kts | 286° |
| 2026-05-07 00:20 | 32.76832 | -117.33408 | 6036 ft | 279 kts | 261° |
| 2026-05-07 00:21 | 32.76212 | -117.35617 | 6919 ft | 286 kts | 244° |
| 2026-05-07 00:21 | 32.75046 | -117.37564 | 7826 ft | 293 kts | 226° |
| 2026-05-07 00:21 | 32.73394 | -117.39004 | 8701 ft | 299 kts | 205° |
| 2026-05-07 00:21 | 32.71375 | -117.39653 | 9582 ft | 303 kts | 181° |
| 2026-05-07 00:22 | 32.69292 | -117.39332 | 10387 ft | 305 kts | 159° |
| 2026-05-07 00:22 | 32.67375 | -117.38206 | 10817 ft | 321 kts | 139° |
| 2026-05-07 00:22 | 32.65714 | -117.36303 | 11021 ft | 344 kts | 131° |
| 2026-05-07 00:22 | 32.63981 | -117.34174 | 11273 ft | 372 kts | 131° |
| 2026-05-07 00:23 | 32.62323 | -117.31797 | 11789 ft | 379 kts | 116° |
| 2026-05-07 00:23 | 32.61412 | -117.28871 | 12679 ft | 376 kts | 98° |
| 2026-05-07 00:23 | 32.61197 | -117.25767 | 13115 ft | 381 kts | 88° |
| 2026-05-07 00:23 | 32.61188 | -117.22576 | 13151 ft | 390 kts | 87° |
| 2026-05-07 00:24 | 32.61203 | -117.19384 | 13773 ft | 393 kts | 87° |
| 2026-05-07 00:24 | 32.61209 | -117.16120 | 14420 ft | 398 kts | 87° |
| 2026-05-07 00:24 | 32.61197 | -117.12818 | 15009 ft | 399 kts | 88° |
| 2026-05-07 00:24 | 32.61171 | -117.09510 | 15099 ft | 403 kts | 88° |
| 2026-05-07 00:25 | 32.61135 | -117.06192 | 15094 ft | 401 kts | 88° |
| 2026-05-07 00:25 | 32.61095 | -117.02896 | 15076 ft | 399 kts | 88° |
| 2026-05-07 00:25 | 32.61054 | -116.99622 | 15069 ft | 392 kts | 88° |
| 2026-05-07 00:25 | 32.61070 | -116.96408 | 15070 ft | 387 kts | 84° |
| 2026-05-07 00:26 | 32.61360 | -116.93283 | 15082 ft | 386 kts | 79° |
| 2026-05-07 00:26 | 32.61755 | -116.90129 | 15091 ft | 388 kts | 79° |
| 2026-05-07 00:26 | 32.62120 | -116.86952 | 15092 ft | 390 kts | 80° |
| 2026-05-07 00:26 | 32.62452 | -116.83757 | 15086 ft | 388 kts | 80° |
| 2026-05-07 00:27 | 32.63103 | -116.80718 | 15076 ft | 379 kts | 63° |
| 2026-05-07 00:27 | 32.64573 | -116.78147 | 15088 ft | 378 kts | 46° |
| 2026-05-07 00:27 | 32.66568 | -116.76123 | 15090 ft | 379 kts | 34° |
| 2026-05-07 00:27 | 32.68917 | -116.74721 | 15076 ft | 378 kts | 20° |
| 2026-05-07 00:28 | 32.71438 | -116.73805 | 15092 ft | 379 kts | 18° |
| 2026-05-07 00:28 | 32.73980 | -116.72939 | 15088 ft | 381 kts | 17° |
| 2026-05-07 00:28 | 32.76533 | -116.72071 | 15074 ft | 382 kts | 18° |
| 2026-05-07 00:28 | 32.79091 | -116.71189 | 15078 ft | 383 kts | 18° |
| 2026-05-07 00:29 | 32.81652 | -116.70294 | 15058 ft | 382 kts | 18° |
| 2026-05-07 00:29 | 32.84193 | -116.69394 | 15080 ft | 381 kts | 18° |
| 2026-05-07 00:30 | 32.91818 | -116.66641 | 15076 ft | 381 kts | 18° |
| 2026-05-07 00:30 | 32.94328 | -116.65734 | 15074 ft | 381 kts | 18° |